Flight Track Log - Related Links

Times and Time Zones

All times are in EDT time to prevent confusion due to time zone crossing. See the N26141 flight status page for this flight to view local times or setup timezone preferences in your user account.

Time Position Orientation Groundspeed Altitude Reporting Facility
EDT Latitude Longitude Course Direction KTS MPH feet Rate Location/Type
Wed 07:40:03 PM 38.1403 -84.5825 325° Northwest 256 295 7,700  Level Indianapolis Center
Wed 07:41:00 PM 37.9049 -84.6803 252° West  Level FlightAware Approximate
Wed 07:41:05 PM 38.0994 -84.6642 238° Southwest 276 318 10,200  Level Indianapolis Center
Wed 07:42:00 PM 37.8784 -84.7716 218° Southwest  Level FlightAware Approximate
Wed 07:42:07 PM 38.0544 -84.7597 239° Southwest 306 352 12,200  Level Indianapolis Center
Wed 07:43:00 PM 37.8512 -84.8605 256° West  Level FlightAware Approximate
Wed 07:43:08 PM 37.9992 -84.8656 236° Southwest 353 406 14,200  Level Indianapolis Center
Wed 07:44:00 PM 37.8824 -84.9801 290° West  Level FlightAware Approximate
Wed 07:44:10 PM 37.9444 -84.9764 238° Southwest 372 428 16,200  Level Indianapolis Center
Wed 07:45:12 PM 37.9475 -85.1294 271° West 389 448 18,000 1,610 Climbing Indianapolis Center
Wed 07:46:13 PM 37.9919 -85.2628 293° West 403 464 19,500 1,463 Climbing Indianapolis Center
Wed 07:47:15 PM 38.0392 -85.3961 294° West 414 476 21,000 1,403 Climbing Indianapolis Center
Wed 07:48:17 PM 38.0925 -85.5294 297° West 421 484 22,400 1,415 Climbing Indianapolis Center
Wed 07:49:18 PM 38.1708 -85.6461 311° West 431 496 23,900 1,463 Climbing Indianapolis Center
Wed 07:50:20 PM 38.2633 -85.7472 319° Northwest 447 514 25,400 1,355 Climbing Indianapolis Center
Wed 07:51:22 PM 38.3786 -85.7725 350° North 433 498 26,700 1,122 Climbing Indianapolis Center
Wed 07:52:23 PM 38.4986 -85.7636 North 431 496 27,700 1,073 Climbing Indianapolis Center
Wed 07:53:25 PM 38.6414 -85.7586 North 435 501 28,900 1,016 Climbing Indianapolis Center
Wed 07:54:27 PM 38.7633 -85.7542 North 436 502 29,800 537 Climbing Indianapolis Center
Wed 07:55:28 PM 38.8889 -85.7486 North 446 513 30,000 98 Climbing Indianapolis Center
Wed 07:56:30 PM 39.0211 -85.7442 North 469 540 30,000  Level Indianapolis Center
Wed 07:57:31 PM 39.1536 -85.7375 North 473 544 30,000  Level Indianapolis Center
Wed 07:58:33 PM 39.2850 -85.7317 North 471 542 30,000 -387 Level Indianapolis Center
Wed 07:59:35 PM 39.4158 -85.7264 North 470 541 29,200 -976 Descending Indianapolis Center
Wed 08:00:36 PM 39.5697 -85.7192 North 474 545 28,000 -1,073 Descending Indianapolis Center
Wed 08:01:38 PM 39.7036 -85.7131 North 479 551 27,000 -968 Descending Indianapolis Center
Wed 08:02:40 PM 39.8381 -85.7075 North 482 555 26,000 -488 Descending Indianapolis Center
Wed 08:03:41 PM 39.9714 -85.7011 North 479 551 26,000  Level Indianapolis Center
Wed 08:04:49 PM 40.1281 -85.6939 North 481 554 26,000 -277 Level Chicago Center
Wed 08:05:51 PM 40.2639 -85.6883 North 483 556 25,400 -823 Descending Chicago Center
Wed 08:06:53 PM 40.3981 -85.6828 North 481 554 24,300 -968 Descending Chicago Center
Wed 08:07:55 PM 40.5278 -85.7031 353° North 469 540 23,400 -726 Descending Chicago Center
Wed 08:08:57 PM 40.6219 -85.8100 319° Northwest 452 520 22,800 -871 Descending Chicago Center
Wed 08:09:59 PM 40.7056 -85.9519 308° West 448 516 21,600 -871 Descending Chicago Center
Wed 08:11:01 PM 40.7794 -86.0819 307° West 444 511 21,000 -290 Descending Chicago Center
Wed 08:12:03 PM 40.8542 -86.2117 307° West 443 510 21,000  Level Chicago Center
Wed 08:13:05 PM 40.9283 -86.3386 308° West 438 504 21,000  Level Chicago Center
Wed 08:14:07 PM 41.0164 -86.4956 307° West 440 506 21,000  Level Chicago Center
Wed 08:15:10 PM 41.0908 -86.6250 307° West 440 506 21,000  Level Chicago Center
Wed 08:16:12 PM 41.1625 -86.7492 308° West 442 509 21,000 -629 Level Chicago Center
Wed 08:17:14 PM 41.2358 -86.8789 307° West 441 507 19,700 -1,694 Descending Chicago Center
Wed 08:18:16 PM 41.3186 -87.0275 307° West 422 486 17,500 -2,056 Descending Chicago Center
Wed 08:19:37 PM 41.4167 -87.2000 307° West 406 467 14,800 -2,044 Descending Chicago TRACON
Wed 08:20:31 PM 41.4667 -87.3000 304° West 399 459 12,900 -1,943 Descending Chicago TRACON
Wed 08:21:22 PM 41.5203 -87.3769 313° West 393 452 11,400 -1,540 Descending Chicago Center
Wed 08:22:24 PM 41.5975 -87.4653 319° Northwest 371 427 10,000 -677 Descending Chicago Center
Wed 08:25:30 PM 41.8394 -87.7003 324° Northwest 293 337 8,600 -653 Descending Chicago Center
Wed 08:26:32 PM 41.9125 -87.7189 349° North 274 315 7,300 -1,065 Descending Chicago Center
Wed 08:27:34 PM 41.9775 -87.7236 357° North 242 278 6,400 -1,286 Descending Chicago Center
Wed 08:28:38 PM 42.0500 -87.7333 354° North 215 247 4,600 -1,597 Descending Chicago TRACON
Wed 08:29:38 PM 42.0833 -87.7667 323° Northwest 206 237 3,100 -1,500 Descending Chicago TRACON

Login

Don't have an account? Register now (free) for customized features, flight alerts, and more!